Panorama, New York
Current Conditions -  °F | °C
As of 7:54 PM on Friday 24 Oct 2014 (Local Time) from KROC Reporting Station
Broken Clouds Broken Clouds  
Wind Chill: 46°   Ceiling: 18000
Heat Index: 49°   Visibility: 10mi
Dew Point: 40°   Wind: 7mph
Humidity: 71%   Direction: 260°W
Pressure: 29.94"   Gusts: NA
Location:  43.1495°N, 77.5063°W
Report Text: KROC 242354Z 26006KT 10SM BKN180 09/04 A2994 RMK AO2 SLP145 T00940044 10156 20094 53005
Loading
Personal Weather Stations






























Interactive Weather Map
Tropical Storm Tracking
New forecast layout! Learn more

10-Day Weather Forecast

Advertisements
Track Severe Weather on mobile